Aérodrome :
LOGIN :

S'inscrire | Disclaimer

   EN    FR    IT 

 










Légende :    VFR   VFR Marginal   IFR   IFR Intensif   IFR Très Intensif
Visi : 
Plafond : 
>= 8 km
>= 3000ft
5 à 8 km
1000 à 3000 ft
1500m à 5 km
500 à 1000 ft
800 à 1500m
200 à 500 ft
< 800m
< 200 ft
Symboles :   Orages  Brouillard  Fortes neiges  Fortes précipitations  Vent > 20 kt
SIGMETs :   Divers  Orages  Givrage  Turbulence  Onde Orograph.  Cendres Volcan.






- Altitude de l'aérodrome : 33 ft
- Code IATA : PLQ


EYPA - Palanga

DERNIER METAR :
  • 180550Z 11008KT 9999 BKN027 OVC200 09/08 Q1016 R19/1///95

METARs EXPIRÉS :
  • 180520Z 11006KT 9999 SCT029 BKN210 09/08 Q1016 R19/1///95
  • 180450Z 10006KT 9999 SCT012 BKN200 09/07 Q1016 R19/1///95
  • 180420Z 10006KT 9999 BKN012 09/08 Q1016 R19/1///95
  • 180350Z 10005KT 9999 OVC012 09/08 Q1017 R19/1///95
  • 180320Z 10006KT 9999 OVC012 09/08 Q1017

TAF TAF EYPA
Valide du 18 à 06h jusqu'au 19 à 06h UTC


180501Z 1806/1906 11010KT 5000 BR OVC015
TEMPO 1806/1809 BKN005
TEMPO 1812/1818 BKN020
TEMPO 1818/1906 BKN005



MET'MAP, la Météo Aéronautique d'un coup d'oeil ! - Copyright ORBIFLY Décembre 2007 - Disclaimer

ORBIFLY MET'MAP TEAM :

Programmation & Développement : Alexandra Zaïnal
Conception & Développement : Baudouin d'Aumeries
Co-Programmation & Développement : Marc-Olivier Méhu
Soutien technique & logistique : Manuel Goepfert

Contact : metmap@orbifly.com




SOURCES & CREDITS :

   NOAA